This is the latest recevied weather packets stored in our database for station/object N0MR. If no packets are shown the sender has not sent any weather packets the latest 10 day(s).
| Time | Temp. | Humidity | Pressure | Rain* | Wind** | Luminosity | Snow |
|---|---|---|---|---|---|---|---|
| 1777902713 | 7.22° C | 86% | 990.2 hPa | 0 mm | - | - | - |
| 1777902115 | 6.67° C | 87% | 990.1 hPa | 0 mm | - | - | - |
| 1777901513 | 6.67° C | 87% | 990.1 hPa | 0 mm | - | - | - |
| 1777900914 | 6.67° C | 89% | 989.7 hPa | 0.25 mm | - | - | - |
| 1777900314 | 6.67° C | 89% | 989.7 hPa | 0.25 mm | - | - | - |
| 1777899714 | 6.67° C | 89% | 989.5 hPa | 0.51 mm | - | - | - |
| 1777899114 | 6.67° C | 89% | 989.5 hPa | 0.51 mm | - | - | - |
| 1777898515 | 6.67° C | 89% | 989.9 hPa | 0.51 mm | - | - | - |
| 1777897314 | 6.67° C | 87% | 989.9 hPa | 0.25 mm | - | - | - |
| 1777896714 | 6.67° C | 87% | 989.9 hPa | 0.25 mm | - | - | - |
| 1777896114 | 8.33° C | 80% | 989.5 hPa | 0 mm | - | - | - |
| 1777895515 | 8.33° C | 80% | 989.5 hPa | 0 mm | - | - | - |
| 1777894915 | 9.44° C | 69% | 989.2 hPa | 0 mm | - | - | - |
| 1777894315 | 9.44° C | 69% | 989.2 hPa | 0 mm | - | - | - |
| 1777893714 | 9.44° C | 68% | 989.1 hPa | 0 mm | - | - | - |
| 1777893114 | 9.44° C | 68% | 989.1 hPa | 0 mm | - | - | - |
| 1777892513 | 10° C | 66% | 989 hPa | 0 mm | - | - | - |
| 1777891315 | 12.78° C | 56% | 988.8 hPa | 0 mm | - | - | - |
| 1777890115 | 13.33° C | 43% | 988 hPa | 0 mm | - | - | - |
| 1777889514 | 13.89° C | 42% | 988.2 hPa | 0 mm | - | - | - |
| 1777888915 | 13.89° C | 42% | 988.2 hPa | 0 mm | - | - | - |
| 1777888315 | 13.89° C | 40% | 988.5 hPa | 0 mm | - | - | - |
| 1777887715 | 13.89° C | 40% | 988.5 hPa | 0 mm | - | - | - |
| 1777887115 | 14.44° C | 38% | 988.9 hPa | 0 mm | - | - | - |
| 1777886516 | 14.44° C | 38% | 988.9 hPa | 0 mm | - | - | - |
* Rain latest hour (hover to see other rain measurements)
** Current wind speed in m/s (hover to see current wind gust speed)